sensor_id;sensor_type;location;lat;lon;timestamp;pressure;altitude;pressure_sealevel;temperature;humidity
54122;BME280;40029;58.708;50.190;2022-10-16T00:03:24;100920.59;;;9.06;47.98
54122;BME280;40029;58.708;50.190;2022-10-16T00:05:59;100926.56;;;9.12;47.76
54122;BME280;40029;58.708;50.190;2022-10-16T00:08:31;100917.09;;;9.10;47.74
54122;BME280;40029;58.708;50.190;2022-10-16T00:11:05;100923.03;;;9.16;47.74
54122;BME280;40029;58.708;50.190;2022-10-16T00:13:39;100925.63;;;9.18;47.91
54122;BME280;40029;58.708;50.190;2022-10-16T00:16:11;100932.53;;;9.22;47.57
54122;BME280;40029;58.708;50.190;2022-10-16T00:18:43;100923.03;;;9.18;47.50
54122;BME280;40029;58.708;50.190;2022-10-16T00:21:18;100926.56;;;9.12;47.88
54122;BME280;40029;58.708;50.190;2022-10-16T00:24:09;100928.38;;;9.07;47.62
54122;BME280;40029;58.708;50.190;2022-10-16T00:26:41;100925.81;;;9.04;48.21
54122;BME280;40029;58.708;50.190;2022-10-16T00:29:12;100927.50;;;9.07;47.65
54122;BME280;40029;58.708;50.190;2022-10-16T00:31:43;100937.13;;;9.00;47.84
54122;BME280;40029;58.708;50.190;2022-10-16T00:34:15;100943.19;;;9.02;47.78
54122;BME280;40029;58.708;50.190;2022-10-16T00:36:46;100937.25;;;8.91;48.38
54122;BME280;40029;58.708;50.190;2022-10-16T00:39:17;100931.03;;;9.02;47.68
54122;BME280;40029;58.708;50.190;2022-10-16T00:41:48;100935.34;;;9.05;47.50
54122;BME280;40029;58.708;50.190;2022-10-16T00:44:50;100934.31;;;9.17;47.61
54122;BME280;40029;58.708;50.190;2022-10-16T00:47:32;100937.03;;;9.09;47.78
54122;BME280;40029;58.708;50.190;2022-10-16T00:50:09;100940.41;;;9.14;47.80
54122;BME280;40029;58.708;50.190;2022-10-16T00:52:45;100945.56;;;9.17;47.55
54122;BME280;40029;58.708;50.190;2022-10-16T00:55:17;100943.84;;;9.16;48.14
54122;BME280;40029;58.708;50.190;2022-10-16T00:57:49;100944.69;;;9.17;48.23
54122;BME280;40029;58.708;50.190;2022-10-16T01:00:23;100948.22;;;9.14;48.66
54122;BME280;40029;58.708;50.190;2022-10-16T01:02:56;100943.84;;;9.16;48.39
54122;BME280;40029;58.708;50.190;2022-10-16T01:05:54;100948.16;;;9.17;48.21
54122;BME280;40029;58.708;50.190;2022-10-16T01:13:58;100951.66;;;9.16;47.75
54122;BME280;40029;58.708;50.190;2022-10-16T01:17:08;100953.41;;;9.13;48.69
54122;BME280;40029;58.708;50.190;2022-10-16T01:19:36;100961.28;;;9.10;48.07
54122;BME280;40029;58.708;50.190;2022-10-16T01:22:12;100921.72;;;8.88;48.30
54122;BME280;40029;58.708;50.190;2022-10-16T01:24:49;100959.59;;;9.06;48.51
54122;BME280;40029;58.708;50.190;2022-10-16T01:27:25;100963.09;;;9.03;48.74
54122;BME280;40029;58.708;50.190;2022-10-16T01:30:11;100957.88;;;9.03;48.67
54122;BME280;40029;58.708;50.190;2022-10-16T01:35:42;100970.00;;;9.06;48.84
54122;BME280;40029;58.708;50.190;2022-10-16T01:38:29;100958.66;;;9.11;48.64
54122;BME280;40029;58.708;50.190;2022-10-16T01:41:28;100964.66;;;9.16;48.34
54122;BME280;40029;58.708;50.190;2022-10-16T01:44:10;100967.31;;;9.13;48.85
54122;BME280;40029;58.708;50.190;2022-10-16T01:46:46;100968.16;;;9.12;48.96
54122;BME280;40029;58.708;50.190;2022-10-16T01:49:21;100967.34;;;9.10;48.66
54122;BME280;40029;58.708;50.190;2022-10-16T01:51:56;100975.91;;;9.17;47.90
54122;BME280;40029;58.708;50.190;2022-10-16T01:54:31;100974.19;;;9.16;48.45
54122;BME280;40029;58.708;50.190;2022-10-16T01:57:06;100970.75;;;9.14;48.65
54122;BME280;40029;58.708;50.190;2022-10-16T01:59:47;100956.91;;;9.13;48.72
54122;BME280;40029;58.708;50.190;2022-10-16T02:02:20;100964.72;;;9.13;48.81
54122;BME280;40029;58.708;50.190;2022-10-16T02:04:57;100975.00;;;9.19;49.13
54122;BME280;40029;58.708;50.190;2022-10-16T02:07:29;100979.41;;;9.14;48.99
54122;BME280;40029;58.708;50.190;2022-10-16T02:10:00;100972.47;;;9.15;49.09
54122;BME280;40029;58.708;50.190;2022-10-16T02:12:36;100977.66;;;9.16;48.48
54122;BME280;40029;58.708;50.190;2022-10-16T02:15:10;100980.22;;;9.19;48.71
54122;BME280;40029;58.708;50.190;2022-10-16T02:17:41;100978.56;;;9.12;48.90
54122;BME280;40029;58.708;50.190;2022-10-16T02:20:12;100978.56;;;9.14;49.18
54122;BME280;40029;58.708;50.190;2022-10-16T02:22:45;100975.97;;;9.14;49.02
54122;BME280;40029;58.708;50.190;2022-10-16T02:33:06;100947.69;;;8.88;49.55
54122;BME280;40029;58.708;50.190;2022-10-16T02:35:38;100952.81;;;8.94;49.02
54122;BME280;40029;58.708;50.190;2022-10-16T02:38:09;100986.38;;;9.12;49.21
54122;BME280;40029;58.708;50.190;2022-10-16T02:40:41;100987.28;;;9.10;49.68
54122;BME280;40029;58.708;50.190;2022-10-16T02:43:13;100984.78;;;8.99;49.10
54122;BME280;40029;58.708;50.190;2022-10-16T02:45:44;100992.53;;;9.05;49.03
54122;BME280;40029;58.708;50.190;2022-10-16T02:48:15;100983.81;;;9.08;49.08
54122;BME280;40029;58.708;50.190;2022-10-16T02:50:46;100978.78;;;8.97;48.99
54122;BME280;40029;58.708;50.190;2022-10-16T02:53:17;100985.59;;;9.04;49.95
54122;BME280;40029;58.708;50.190;2022-10-16T02:55:48;100992.56;;;9.02;49.49
54122;BME280;40029;58.708;50.190;2022-10-16T02:58:19;100985.63;;;9.02;49.46
54122;BME280;40029;58.708;50.190;2022-10-16T03:00:50;100979.56;;;9.02;49.89
54122;BME280;40029;58.708;50.190;2022-10-16T03:03:21;100985.66;;;9.01;49.58
54122;BME280;40029;58.708;50.190;2022-10-16T03:05:52;100953.75;;;8.87;50.04
54122;BME280;40029;58.708;50.190;2022-10-16T03:08:23;100986.53;;;8.98;49.73
54122;BME280;40029;58.708;50.190;2022-10-16T03:10:56;100991.59;;;9.11;49.67
54122;BME280;40029;58.708;50.190;2022-10-16T03:13:27;100992.47;;;9.08;49.82
54122;BME280;40029;58.708;50.190;2022-10-16T03:15:58;100991.66;;;9.06;50.12
54122;BME280;40029;58.708;50.190;2022-10-16T03:18:29;101001.09;;;9.12;50.26
54122;BME280;40029;58.708;50.190;2022-10-16T03:21:00;100994.25;;;9.06;50.03
54122;BME280;40029;58.708;50.190;2022-10-16T03:23:31;100977.13;;;8.87;50.07
54122;BME280;40029;58.708;50.190;2022-10-16T03:26:02;100995.94;;;9.10;50.15
54122;BME280;40029;58.708;50.190;2022-10-16T03:28:33;101004.66;;;9.06;50.17
54122;BME280;40029;58.708;50.190;2022-10-16T03:31:04;100999.41;;;9.11;49.75
54122;BME280;40029;58.708;50.190;2022-10-16T03:33:35;101003.03;;;8.97;50.68
54122;BME280;40029;58.708;50.190;2022-10-16T03:36:06;101011.66;;;8.99;50.26
54122;BME280;40029;58.708;50.190;2022-10-16T03:38:37;100987.66;;;8.77;50.43
54122;BME280;40029;58.708;50.190;2022-10-16T03:41:08;101029.00;;;8.96;50.52
54122;BME280;40029;58.708;50.190;2022-10-16T03:43:39;101027.22;;;9.02;50.59
54122;BME280;40029;58.708;50.190;2022-10-16T03:46:10;101015.25;;;8.89;50.91
54122;BME280;40029;58.708;50.190;2022-10-16T03:48:41;101027.16;;;9.07;49.96
54122;BME280;40029;58.708;50.190;2022-10-16T03:51:12;100996.97;;;8.95;49.99
54122;BME280;40029;58.708;50.190;2022-10-16T03:53:43;101034.84;;;9.18;49.71
54122;BME280;40029;58.708;50.190;2022-10-16T03:56:14;101035.69;;;9.20;49.72
54122;BME280;40029;58.708;50.190;2022-10-16T03:58:45;101033.03;;;9.24;50.43
54122;BME280;40029;58.708;50.190;2022-10-16T04:01:16;101037.34;;;9.25;49.78
54122;BME280;40029;58.708;50.190;2022-10-16T04:03:47;101034.69;;;9.32;49.30
54122;BME280;40029;58.708;50.190;2022-10-16T04:06:18;101038.16;;;9.29;49.97
54122;BME280;40029;58.708;50.190;2022-10-16T04:08:49;101042.63;;;9.19;50.70
54122;BME280;40029;58.708;50.190;2022-10-16T04:11:20;101044.25;;;9.28;50.26
54122;BME280;40029;58.708;50.190;2022-10-16T04:13:51;101046.09;;;9.17;50.53
54122;BME280;40029;58.708;50.190;2022-10-16T04:16:22;101046.88;;;9.25;50.44
54122;BME280;40029;58.708;50.190;2022-10-16T04:18:53;101049.47;;;9.26;50.36
54122;BME280;40029;58.708;50.190;2022-10-16T04:21:24;101055.50;;;9.29;49.83
54122;BME280;40029;58.708;50.190;2022-10-16T04:23:55;101028.81;;;9.14;50.32
54122;BME280;40029;58.708;50.190;2022-10-16T04:26:26;101070.25;;;9.28;50.12
54122;BME280;40029;58.708;50.190;2022-10-16T04:28:57;101054.63;;;9.30;50.01
54122;BME280;40029;58.708;50.190;2022-10-16T04:31:28;101049.44;;;9.28;49.92
54122;BME280;40029;58.708;50.190;2022-10-16T04:33:59;101061.47;;;9.37;50.17
54122;BME280;40029;58.708;50.190;2022-10-16T04:36:30;101056.16;;;9.46;49.83
54122;BME280;40029;58.708;50.190;2022-10-16T04:39:01;101061.38;;;9.47;49.60
54122;BME280;40029;58.708;50.190;2022-10-16T04:41:32;101070.03;;;9.48;49.87
54122;BME280;40029;58.708;50.190;2022-10-16T04:44:03;101071.00;;;9.39;49.32
54122;BME280;40029;58.708;50.190;2022-10-16T04:46:34;101074.38;;;9.46;49.85
54122;BME280;40029;58.708;50.190;2022-10-16T04:49:05;101077.75;;;9.51;49.63
54122;BME280;40029;58.708;50.190;2022-10-16T04:51:36;101071.72;;;9.52;49.39
54122;BME280;40029;58.708;50.190;2022-10-16T04:54:09;101066.50;;;9.52;49.67
54122;BME280;40029;58.708;50.190;2022-10-16T04:56:40;101064.72;;;9.54;49.67
54122;BME280;40029;58.708;50.190;2022-10-16T04:59:18;101053.50;;;9.52;49.58
54122;BME280;40029;58.708;50.190;2022-10-16T05:01:49;101067.28;;;9.56;49.98
54122;BME280;40029;58.708;50.190;2022-10-16T05:04:21;101060.38;;;9.56;49.33
54122;BME280;40029;58.708;50.190;2022-10-16T05:06:52;101053.50;;;9.52;49.70
54122;BME280;40029;58.708;50.190;2022-10-16T05:09:23;101065.50;;;9.62;49.00
54122;BME280;40029;58.708;50.190;2022-10-16T05:11:54;101063.78;;;9.60;49.20
54122;BME280;40029;58.708;50.190;2022-10-16T05:14:25;101063.84;;;9.55;49.84
54122;BME280;40029;58.708;50.190;2022-10-16T05:16:56;101074.28;;;9.54;49.74
54122;BME280;40029;58.708;50.190;2022-10-16T05:19:27;101036.22;;;9.45;49.59
54122;BME280;40029;58.708;50.190;2022-10-16T05:21:58;101070.78;;;9.55;49.95
54122;BME280;40029;58.708;50.190;2022-10-16T05:24:29;101070.06;;;9.45;50.45
54122;BME280;40029;58.708;50.190;2022-10-16T05:27:00;101077.94;;;9.37;50.48
54122;BME280;40029;58.708;50.190;2022-10-16T05:29:31;101075.22;;;9.48;50.84
54122;BME280;40029;58.708;50.190;2022-10-16T05:32:02;101075.34;;;9.39;50.68
54122;BME280;40029;58.708;50.190;2022-10-16T05:34:34;101084.78;;;9.46;50.74
54122;BME280;40029;58.708;50.190;2022-10-16T05:37:05;101090.91;;;9.42;50.95
54122;BME280;40029;58.708;50.190;2022-10-16T05:39:36;101093.50;;;9.43;50.58
54122;BME280;40029;58.708;50.190;2022-10-16T05:42:07;101093.41;;;9.49;50.78
54122;BME280;40029;58.708;50.190;2022-10-16T05:44:38;101077.09;;;9.37;51.21
54122;BME280;40029;58.708;50.190;2022-10-16T05:47:09;101089.91;;;9.52;51.98
54122;BME280;40029;58.708;50.190;2022-10-16T05:49:41;101096.69;;;9.64;51.67
54122;BME280;40029;58.708;50.190;2022-10-16T05:52:12;101089.78;;;9.64;50.90
54122;BME280;40029;58.708;50.190;2022-10-16T05:54:43;101086.13;;;9.77;51.14
54122;BME280;40029;58.708;50.190;2022-10-16T05:57:14;101080.88;;;9.79;51.55
54122;BME280;40029;58.708;50.190;2022-10-16T05:59:45;101083.28;;;9.94;51.28
54122;BME280;40029;58.708;50.190;2022-10-16T06:02:16;101083.03;;;10.11;50.74
54122;BME280;40029;58.708;50.190;2022-10-16T06:04:47;101020.91;;;9.87;50.27
54122;BME280;40029;58.708;50.190;2022-10-16T06:07:18;101083.06;;;10.07;51.59
54122;BME280;40029;58.708;50.190;2022-10-16T06:09:50;101088.88;;;10.27;50.51
54122;BME280;40029;58.708;50.190;2022-10-16T06:12:21;101090.53;;;10.33;50.58
54122;BME280;40029;58.708;50.190;2022-10-16T06:14:52;101085.72;;;10.62;50.57
54122;BME280;40029;58.708;50.190;2022-10-16T06:17:23;101053.47;;;10.68;49.81
54122;BME280;40029;58.708;50.190;2022-10-16T06:19:55;101057.03;;;10.62;50.58
54122;BME280;40029;58.708;50.190;2022-10-16T06:22:26;101094.75;;;10.92;50.10
54122;BME280;40029;58.708;50.190;2022-10-16T06:24:57;101093.81;;;10.95;49.37
54122;BME280;40029;58.708;50.190;2022-10-16T06:27:28;101097.97;;;11.05;49.06
54122;BME280;40029;58.708;50.190;2022-10-16T06:29:59;101097.75;;;11.16;48.72
54122;BME280;40029;58.708;50.190;2022-10-16T06:32:30;101097.91;;;11.10;49.69
54122;BME280;40029;58.708;50.190;2022-10-16T06:35:01;101104.66;;;11.20;48.94
54122;BME280;40029;58.708;50.190;2022-10-16T06:37:33;101105.44;;;11.23;49.70
54122;BME280;40029;58.708;50.190;2022-10-16T06:40:05;101114.88;;;11.31;49.69
54122;BME280;40029;58.708;50.190;2022-10-16T06:42:36;101112.19;;;11.35;48.88
54122;BME280;40029;58.708;50.190;2022-10-16T06:45:07;101113.84;;;11.39;49.07
54122;BME280;40029;58.708;50.190;2022-10-16T06:47:38;101119.38;;;11.66;48.55
54122;BME280;40029;58.708;50.190;2022-10-16T06:50:09;101122.75;;;11.72;48.64
54122;BME280;40029;58.708;50.190;2022-10-16T06:52:40;101122.66;;;11.77;48.88
54122;BME280;40029;58.708;50.190;2022-10-16T06:55:11;101104.63;;;11.63;48.49
54122;BME280;40029;58.708;50.190;2022-10-16T06:57:43;101123.41;;;11.81;47.83
54122;BME280;40029;58.708;50.190;2022-10-16T07:00:14;101119.81;;;11.88;48.25
54122;BME280;40029;58.708;50.190;2022-10-16T07:02:45;101124.28;;;11.83;47.97
54122;BME280;40029;58.708;50.190;2022-10-16T07:05:16;101124.38;;;11.76;48.42
54122;BME280;40029;58.708;50.190;2022-10-16T07:07:47;101128.69;;;11.79;48.25
54122;BME280;40029;58.708;50.190;2022-10-16T07:10:18;101127.16;;;11.69;48.60
54122;BME280;40029;58.708;50.190;2022-10-16T07:12:49;101117.69;;;11.63;48.37
54122;BME280;40029;58.708;50.190;2022-10-16T07:15:20;101092.59;;;11.58;48.70
54122;BME280;40029;58.708;50.190;2022-10-16T07:17:52;101125.25;;;11.75;48.94
54122;BME280;40029;58.708;50.190;2022-10-16T07:20:23;101123.38;;;11.84;49.26
54122;BME280;40029;58.708;50.190;2022-10-16T07:22:54;101124.22;;;11.86;48.88
54122;BME280;40029;58.708;50.190;2022-10-16T07:25:25;101127.69;;;11.86;49.45
54122;BME280;40029;58.708;50.190;2022-10-16T07:27:56;101131.97;;;11.89;49.61
54122;BME280;40029;58.708;50.190;2022-10-16T07:30:27;101130.16;;;11.92;49.33
54122;BME280;40029;58.708;50.190;2022-10-16T07:32:58;101138.03;;;11.91;49.68
54122;BME280;40029;58.708;50.190;2022-10-16T07:35:29;101122.69;;;11.74;49.72
54122;BME280;40029;58.708;50.190;2022-10-16T07:38:00;101135.59;;;11.82;49.97
54122;BME280;40029;58.708;50.190;2022-10-16T07:40:31;101130.25;;;11.88;49.91
54122;BME280;40029;58.708;50.190;2022-10-16T07:43:02;101132.81;;;11.91;50.00
54122;BME280;40029;58.708;50.190;2022-10-16T07:45:36;101137.63;;;12.09;51.60
54122;BME280;40029;58.708;50.190;2022-10-16T07:48:07;101124.13;;;12.29;51.05
54122;BME280;40029;58.708;50.190;2022-10-16T07:50:38;101131.81;;;12.35;50.10
54122;BME280;40029;58.708;50.190;2022-10-16T07:53:10;101129.06;;;12.40;49.93
54122;BME280;40029;58.708;50.190;2022-10-16T07:55:42;101132.66;;;12.36;49.24
54122;BME280;40029;58.708;50.190;2022-10-16T07:58:13;101140.66;;;12.30;49.63
54122;BME280;40029;58.708;50.190;2022-10-16T08:00:44;101130.13;;;12.33;49.40
54122;BME280;40029;58.708;50.190;2022-10-16T08:03:15;101103.59;;;12.12;50.16
54122;BME280;40029;58.708;50.190;2022-10-16T08:05:46;101122.59;;;12.20;49.22
54122;BME280;40029;58.708;50.190;2022-10-16T08:08:18;101134.75;;;12.21;49.32
54122;BME280;40029;58.708;50.190;2022-10-16T08:10:49;101109.31;;;11.91;49.99
54122;BME280;40029;58.708;50.190;2022-10-16T08:13:20;101133.41;;;12.04;49.88
54122;BME280;40029;58.708;50.190;2022-10-16T08:15:53;101131.81;;;11.96;49.84
54122;BME280;40029;58.708;50.190;2022-10-16T08:18:25;101133.78;;;11.87;50.11
54122;BME280;40029;58.708;50.190;2022-10-16T08:20:57;101136.19;;;11.96;50.71
54122;BME280;40029;58.708;50.190;2022-10-16T08:23:29;101127.53;;;11.94;49.82
54122;BME280;40029;58.708;50.190;2022-10-16T08:26:05;101140.44;;;12.00;50.39
54122;BME280;40029;58.708;50.190;2022-10-16T08:28:38;101136.09;;;12.00;50.38
54122;BME280;40029;58.708;50.190;2022-10-16T08:31:14;101130.84;;;12.00;50.68
54122;BME280;40029;58.708;50.190;2022-10-16T08:33:46;101135.84;;;12.11;50.70
54122;BME280;40029;58.708;50.190;2022-10-16T08:36:18;101124.63;;;12.06;50.39
54122;BME280;40029;58.708;50.190;2022-10-16T08:38:49;101135.00;;;12.11;50.40
54122;BME280;40029;58.708;50.190;2022-10-16T08:41:30;101141.94;;;12.10;50.53
54122;BME280;40029;58.708;50.190;2022-10-16T08:47:17;101133.31;;;12.08;50.73
54122;BME280;40029;58.708;50.190;2022-10-16T08:50:00;101140.31;;;12.06;50.76
54122;BME280;40029;58.708;50.190;2022-10-16T08:52:38;101124.97;;;11.91;50.91
54122;BME280;40029;58.708;50.190;2022-10-16T08:58:16;101142.25;;;11.98;51.26
54122;BME280;40029;58.708;50.190;2022-10-16T09:00:54;101138.94;;;11.90;51.82
54122;BME280;40029;58.708;50.190;2022-10-16T09:06:20;101135.97;;;12.05;51.26
54122;BME280;40029;58.708;50.190;2022-10-16T09:11:51;101134.56;;;12.29;51.23
54122;BME280;40029;58.708;50.190;2022-10-16T09:23:29;101130.38;;;12.59;50.58
54122;BME280;40029;58.708;50.190;2022-10-16T09:26:01;101130.19;;;12.65;51.33
54122;BME280;40029;58.708;50.190;2022-10-16T09:28:37;101075.16;;;12.36;50.62
54122;BME280;40029;58.708;50.190;2022-10-16T09:31:15;101113.34;;;12.77;50.56
54122;BME280;40029;58.708;50.190;2022-10-16T09:33:54;101111.34;;;12.87;50.06
54122;BME280;40029;58.708;50.190;2022-10-16T09:36:36;101087.97;;;12.81;50.34
54122;BME280;40029;58.708;50.190;2022-10-16T09:39:24;101012.38;;;12.39;49.50
54122;BME280;40029;58.708;50.190;2022-10-16T09:42:23;101088.69;;;12.87;49.26
54122;BME280;40029;58.708;50.190;2022-10-16T09:45:00;101127.13;;;13.18;49.14
54122;BME280;40029;58.708;50.190;2022-10-16T09:47:37;101131.94;;;13.33;48.47
54122;BME280;40029;58.708;50.190;2022-10-16T09:50:28;101076.22;;;12.97;48.54
54122;BME280;40029;58.708;50.190;2022-10-16T09:53:11;101100.97;;;13.16;48.18
54122;BME280;40029;58.708;50.190;2022-10-16T09:55:50;101107.72;;;13.27;48.48
54122;BME280;40029;58.708;50.190;2022-10-16T09:58:24;101124.78;;;13.40;48.25
54122;BME280;40029;58.708;50.190;2022-10-16T10:00:57;101095.66;;;13.19;48.01
54122;BME280;40029;58.708;50.190;2022-10-16T10:03:41;101060.84;;;13.17;47.71
54122;BME280;40029;58.708;50.190;2022-10-16T10:06:37;100979.44;;;12.64;47.44
54122;BME280;40029;58.708;50.190;2022-10-16T10:09:19;101097.25;;;13.27;47.36
54122;BME280;40029;58.708;50.190;2022-10-16T10:11:57;100995.75;;;12.74;46.50
54122;BME280;40029;58.708;50.190;2022-10-16T10:14:35;101134.47;;;13.67;46.45
54122;BME280;40029;58.708;50.190;2022-10-16T10:17:20;101131.97;;;13.63;46.57
54122;BME280;40029;58.708;50.190;2022-10-16T10:20:21;101105.13;;;13.56;45.98
54122;BME280;40029;58.708;50.190;2022-10-16T10:23:23;101134.97;;;13.80;46.05
54122;BME280;40029;58.708;50.190;2022-10-16T10:37:37;101138.34;;;14.13;45.61
54122;BME280;40029;58.708;50.190;2022-10-16T10:43:03;101134.78;;;14.16;44.95
54122;BME280;40029;58.708;50.190;2022-10-16T10:45:44;101135.00;;;14.08;44.96
54122;BME280;40029;58.708;50.190;2022-10-16T10:48:26;101114.03;;;14.08;45.08
54122;BME280;40029;58.708;50.190;2022-10-16T10:51:08;101085.50;;;13.99;44.65
54122;BME280;40029;58.708;50.190;2022-10-16T10:54:01;101081.66;;;14.11;44.08
54122;BME280;40029;58.708;50.190;2022-10-16T10:56:57;101131.91;;;14.52;43.27
54122;BME280;40029;58.708;50.190;2022-10-16T10:59:43;101125.81;;;14.51;43.59
54122;BME280;40029;58.708;50.190;2022-10-16T11:05:24;101122.03;;;14.60;42.84
54122;BME280;40029;58.708;50.190;2022-10-16T11:11:51;101055.16;;;14.18;42.42
54122;BME280;40029;58.708;50.190;2022-10-16T11:14:18;101038.66;;;14.16;42.12
54122;BME280;40029;58.708;50.190;2022-10-16T11:17:08;101122.56;;;14.69;42.04
54122;BME280;40029;58.708;50.190;2022-10-16T11:20:17;101121.97;;;14.88;41.91
54122;BME280;40029;58.708;50.190;2022-10-16T11:22:54;101089.94;;;14.52;41.52
54122;BME280;40029;58.708;50.190;2022-10-16T11:25:29;101069.34;;;14.39;41.39
54122;BME280;40029;58.708;50.190;2022-10-16T11:28:16;101123.69;;;14.89;40.86
54122;BME280;40029;58.708;50.190;2022-10-16T11:30:55;101097.41;;;14.64;40.55
54122;BME280;40029;58.708;50.190;2022-10-16T11:33:42;101096.25;;;14.72;40.34
54122;BME280;40029;58.708;50.190;2022-10-16T11:37:12;101053.94;;;14.57;39.79
54122;BME280;40029;58.708;50.190;2022-10-16T11:39:33;100952.66;;;13.74;40.03
54122;BME280;40029;58.708;50.190;2022-10-16T11:42:37;101020.41;;;14.13;38.55
54122;BME280;40029;58.708;50.190;2022-10-16T11:53:56;101126.47;;;14.84;38.34
54122;BME280;40029;58.708;50.190;2022-10-16T11:56:32;101118.91;;;14.75;38.43
54122;BME280;40029;58.708;50.190;2022-10-16T11:59:34;101114.56;;;14.74;38.14
54122;BME280;40029;58.708;50.190;2022-10-16T12:02:31;101126.81;;;14.73;38.74
54122;BME280;40029;58.708;50.190;2022-10-16T12:08:10;101091.78;;;14.48;38.10
54122;BME280;40029;58.708;50.190;2022-10-16T12:10:45;101133.44;;;14.59;38.59
54122;BME280;40029;58.708;50.190;2022-10-16T12:13:35;101130.81;;;14.59;38.58
54122;BME280;40029;58.708;50.190;2022-10-16T12:16:19;101132.03;;;14.47;38.75
54122;BME280;40029;58.708;50.190;2022-10-16T12:19:09;101069.44;;;14.10;38.48
54122;BME280;40029;58.708;50.190;2022-10-16T12:21:42;101095.25;;;14.22;38.56
54122;BME280;40029;58.708;50.190;2022-10-16T12:24:51;101128.44;;;14.51;38.65
54122;BME280;40029;58.708;50.190;2022-10-16T12:29:58;101070.50;;;14.04;39.03
54122;BME280;40029;58.708;50.190;2022-10-16T12:32:33;101088.59;;;14.12;39.39
54122;BME280;40029;58.708;50.190;2022-10-16T12:35:22;101112.59;;;14.26;38.97
54122;BME280;40029;58.708;50.190;2022-10-16T12:38:07;101102.56;;;14.12;39.82
54122;BME280;40029;58.708;50.190;2022-10-16T12:40:39;101059.06;;;13.79;38.87
54122;BME280;40029;58.708;50.190;2022-10-16T12:48:45;101019.22;;;13.39;39.65
54122;BME280;40029;58.708;50.190;2022-10-16T13:00:09;101091.03;;;13.60;40.21
54122;BME280;40029;58.708;50.190;2022-10-16T13:11:52;101110.88;;;13.69;40.35
54122;BME280;40029;58.708;50.190;2022-10-16T13:17:44;101077.81;;;13.35;39.99
54122;BME280;40029;58.708;50.190;2022-10-16T13:28:12;101111.63;;;13.43;40.03
54122;BME280;40029;58.708;50.190;2022-10-16T13:30:50;101098.03;;;13.30;40.12
54122;BME280;40029;58.708;50.190;2022-10-16T13:36:06;101089.91;;;13.07;40.60
54122;BME280;40029;58.708;50.190;2022-10-16T13:38:37;101108.94;;;13.12;40.64
54122;BME280;40029;58.708;50.190;2022-10-16T13:41:16;101108.81;;;13.16;40.61
54122;BME280;40029;58.708;50.190;2022-10-16T13:43:52;101101.19;;;13.09;40.84
54122;BME280;40029;58.708;50.190;2022-10-16T13:46:26;101082.50;;;12.90;40.54
54122;BME280;40029;58.708;50.190;2022-10-16T13:49:03;101105.66;;;13.05;41.01
54122;BME280;40029;58.708;50.190;2022-10-16T13:51:35;101093.03;;;12.87;41.01
54122;BME280;40029;58.708;50.190;2022-10-16T13:54:11;101063.00;;;12.69;40.94
54122;BME280;40029;58.708;50.190;2022-10-16T13:56:42;101057.16;;;12.59;41.66
54122;BME280;40029;58.708;50.190;2022-10-16T13:59:36;101110.34;;;12.92;41.29
54122;BME280;40029;58.708;50.190;2022-10-16T14:02:37;101088.28;;;12.68;41.65
54122;BME280;40029;58.708;50.190;2022-10-16T14:05:10;101056.00;;;12.37;41.28
54122;BME280;40029;58.708;50.190;2022-10-16T14:07:49;101079.28;;;12.44;41.70
54122;BME280;40029;58.708;50.190;2022-10-16T14:10:29;101105.25;;;12.52;41.75
54122;BME280;40029;58.708;50.190;2022-10-16T14:13:04;101054.59;;;12.22;41.91
54122;BME280;40029;58.708;50.190;2022-10-16T14:15:39;101090.72;;;12.42;41.74
54122;BME280;40029;58.708;50.190;2022-10-16T14:18:19;101124.22;;;12.60;42.02
54122;BME280;40029;58.708;50.190;2022-10-16T14:20:51;101116.72;;;12.46;41.79
54122;BME280;40029;58.708;50.190;2022-10-16T14:23:29;101123.66;;;12.47;42.39
54122;BME280;40029;58.708;50.190;2022-10-16T14:26:28;101129.53;;;12.57;41.97
54122;BME280;40029;58.708;50.190;2022-10-16T14:29:18;101126.78;;;12.63;41.44
54122;BME280;40029;58.708;50.190;2022-10-16T14:34:36;101113.31;;;12.43;41.46
54122;BME280;40029;58.708;50.190;2022-10-16T14:37:27;101109.91;;;12.41;41.81
54122;BME280;40029;58.708;50.190;2022-10-16T14:40:01;101110.03;;;12.35;41.62
54122;BME280;40029;58.708;50.190;2022-10-16T14:42:34;101086.00;;;12.20;41.15
54122;BME280;40029;58.708;50.190;2022-10-16T14:45:09;101123.84;;;12.41;41.15
54122;BME280;40029;58.708;50.190;2022-10-16T14:47:52;101080.72;;;12.22;41.16
54122;BME280;40029;58.708;50.190;2022-10-16T14:50:30;101118.63;;;12.40;40.93
54122;BME280;40029;58.708;50.190;2022-10-16T14:53:20;101052.44;;;12.04;40.89
54122;BME280;40029;58.708;50.190;2022-10-16T14:55:58;101013.03;;;11.74;40.49
54122;BME280;40029;58.708;50.190;2022-10-16T15:01:47;100963.34;;;11.40;40.43
54122;BME280;40029;58.708;50.190;2022-10-16T15:04:28;100983.91;;;11.54;40.29
54122;BME280;40029;58.708;50.190;2022-10-16T15:07:08;100965.06;;;11.41;40.66
54122;BME280;40029;58.708;50.190;2022-10-16T15:09:42;101069.97;;;11.97;40.21
54122;BME280;40029;58.708;50.190;2022-10-16T15:12:14;100970.34;;;11.38;40.82
54122;BME280;40029;58.708;50.190;2022-10-16T15:14:48;101067.41;;;11.95;39.92
54122;BME280;40029;58.708;50.190;2022-10-16T15:17:26;101055.38;;;11.90;40.32
54122;BME280;40029;58.708;50.190;2022-10-16T15:20:00;101064.16;;;11.86;40.17
54122;BME280;40029;58.708;50.190;2022-10-16T15:22:31;101084.69;;;12.01;40.16
54122;BME280;40029;58.708;50.190;2022-10-16T15:25:32;101126.56;;;12.37;39.83
54122;BME280;40029;58.708;50.190;2022-10-16T15:28:04;101091.63;;;12.02;39.98